sensor_id;sensor_type;location;lat;lon;timestamp;P1;durP1;ratioP1;P2;durP2;ratioP2
61295;SDS011;47168;48.104;20.730;2022-08-19T00:00:47;15.20;;;9.13;;
61295;SDS011;47168;48.104;20.730;2022-08-19T00:03:13;16.20;;;9.70;;
61295;SDS011;47168;48.104;20.730;2022-08-19T00:05:38;16.58;;;9.07;;
61295;SDS011;47168;48.104;20.730;2022-08-19T00:08:05;16.00;;;9.70;;
61295;SDS011;47168;48.104;20.730;2022-08-19T00:10:30;15.02;;;9.15;;
61295;SDS011;47168;48.104;20.730;2022-08-19T00:12:56;16.50;;;9.88;;
61295;SDS011;47168;48.104;20.730;2022-08-19T00:15:21;15.15;;;9.93;;
61295;SDS011;47168;48.104;20.730;2022-08-19T00:17:47;15.02;;;9.13;;
61295;SDS011;47168;48.104;20.730;2022-08-19T00:20:16;15.00;;;9.60;;
61295;SDS011;47168;48.104;20.730;2022-08-19T00:22:45;16.00;;;10.02;;
61295;SDS011;47168;48.104;20.730;2022-08-19T00:25:12;15.07;;;9.55;;
61295;SDS011;47168;48.104;20.730;2022-08-19T00:27:38;18.92;;;9.57;;
61295;SDS011;47168;48.104;20.730;2022-08-19T00:30:04;15.35;;;9.35;;
61295;SDS011;47168;48.104;20.730;2022-08-19T00:32:31;15.70;;;8.98;;
61295;SDS011;47168;48.104;20.730;2022-08-19T00:34:59;16.60;;;9.85;;
61295;SDS011;47168;48.104;20.730;2022-08-19T00:37:25;16.48;;;9.07;;
61295;SDS011;47168;48.104;20.730;2022-08-19T00:39:52;14.50;;;9.02;;
61295;SDS011;47168;48.104;20.730;2022-08-19T00:42:21;16.98;;;9.63;;
61295;SDS011;47168;48.104;20.730;2022-08-19T00:44:47;16.70;;;9.48;;
61295;SDS011;47168;48.104;20.730;2022-08-19T00:47:12;16.00;;;9.27;;
61295;SDS011;47168;48.104;20.730;2022-08-19T00:49:43;15.32;;;8.98;;
61295;SDS011;47168;48.104;20.730;2022-08-19T00:52:17;15.10;;;9.40;;
61295;SDS011;47168;48.104;20.730;2022-08-19T00:54:49;16.83;;;9.77;;
61295;SDS011;47168;48.104;20.730;2022-08-19T00:57:18;16.00;;;9.65;;
61295;SDS011;47168;48.104;20.730;2022-08-19T00:59:47;16.40;;;9.02;;
61295;SDS011;47168;48.104;20.730;2022-08-19T01:02:18;14.40;;;8.95;;
61295;SDS011;47168;48.104;20.730;2022-08-19T01:04:44;14.38;;;8.77;;
61295;SDS011;47168;48.104;20.730;2022-08-19T01:07:09;14.50;;;8.68;;
61295;SDS011;47168;48.104;20.730;2022-08-19T01:09:35;15.70;;;9.25;;
61295;SDS011;47168;48.104;20.730;2022-08-19T01:12:02;16.50;;;9.00;;
61295;SDS011;47168;48.104;20.730;2022-08-19T01:14:28;17.42;;;9.60;;
61295;SDS011;47168;48.104;20.730;2022-08-19T01:16:55;16.70;;;9.70;;
61295;SDS011;47168;48.104;20.730;2022-08-19T01:19:27;13.98;;;8.45;;
61295;SDS011;47168;48.104;20.730;2022-08-19T01:22:01;14.45;;;9.10;;
61295;SDS011;47168;48.104;20.730;2022-08-19T01:24:30;13.73;;;8.75;;
61295;SDS011;47168;48.104;20.730;2022-08-19T01:26:56;14.82;;;8.15;;
61295;SDS011;47168;48.104;20.730;2022-08-19T01:29:22;15.10;;;8.35;;
61295;SDS011;47168;48.104;20.730;2022-08-19T01:31:47;15.25;;;8.45;;
61295;SDS011;47168;48.104;20.730;2022-08-19T01:34:14;13.98;;;8.50;;
61295;SDS011;47168;48.104;20.730;2022-08-19T01:36:41;15.13;;;8.95;;
61295;SDS011;47168;48.104;20.730;2022-08-19T01:39:12;12.90;;;8.38;;
61295;SDS011;47168;48.104;20.730;2022-08-19T01:41:41;12.80;;;8.10;;
61295;SDS011;47168;48.104;20.730;2022-08-19T01:44:07;14.75;;;8.82;;
61295;SDS011;47168;48.104;20.730;2022-08-19T01:46:33;15.35;;;8.95;;
61295;SDS011;47168;48.104;20.730;2022-08-19T01:49:00;15.50;;;8.70;;
61295;SDS011;47168;48.104;20.730;2022-08-19T01:51:26;13.70;;;8.48;;
61295;SDS011;47168;48.104;20.730;2022-08-19T01:53:51;14.48;;;8.07;;
61295;SDS011;47168;48.104;20.730;2022-08-19T01:56:17;16.38;;;8.98;;
61295;SDS011;47168;48.104;20.730;2022-08-19T01:58:45;14.75;;;8.63;;
61295;SDS011;47168;48.104;20.730;2022-08-19T02:01:15;14.05;;;8.00;;
61295;SDS011;47168;48.104;20.730;2022-08-19T02:03:42;16.48;;;8.55;;
61295;SDS011;47168;48.104;20.730;2022-08-19T02:06:07;14.25;;;8.15;;
61295;SDS011;47168;48.104;20.730;2022-08-19T02:08:34;14.50;;;8.93;;
61295;SDS011;47168;48.104;20.730;2022-08-19T02:11:02;16.58;;;8.48;;
61295;SDS011;47168;48.104;20.730;2022-08-19T02:13:28;14.95;;;8.57;;
61295;SDS011;47168;48.104;20.730;2022-08-19T02:15:54;15.07;;;8.63;;
61295;SDS011;47168;48.104;20.730;2022-08-19T02:18:19;14.85;;;8.25;;
61295;SDS011;47168;48.104;20.730;2022-08-19T02:20:45;14.80;;;8.63;;
61295;SDS011;47168;48.104;20.730;2022-08-19T02:23:12;15.85;;;8.93;;
61295;SDS011;47168;48.104;20.730;2022-08-19T02:25:38;14.50;;;7.97;;
61295;SDS011;47168;48.104;20.730;2022-08-19T02:28:05;13.25;;;8.25;;
61295;SDS011;47168;48.104;20.730;2022-08-19T02:30:30;13.95;;;8.07;;
61295;SDS011;47168;48.104;20.730;2022-08-19T02:32:56;14.85;;;8.35;;
61295;SDS011;47168;48.104;20.730;2022-08-19T02:35:22;15.10;;;8.43;;
61295;SDS011;47168;48.104;20.730;2022-08-19T02:37:48;12.90;;;7.55;;
61295;SDS011;47168;48.104;20.730;2022-08-19T02:40:32;14.90;;;8.45;;
61295;SDS011;47168;48.104;20.730;2022-08-19T02:43:03;13.63;;;8.00;;
61295;SDS011;47168;48.104;20.730;2022-08-19T02:45:36;14.35;;;8.50;;
61295;SDS011;47168;48.104;20.730;2022-08-19T02:48:04;14.25;;;8.80;;
61295;SDS011;47168;48.104;20.730;2022-08-19T02:50:30;14.45;;;8.20;;
61295;SDS011;47168;48.104;20.730;2022-08-19T02:52:56;14.73;;;8.27;;
61295;SDS011;47168;48.104;20.730;2022-08-19T02:55:21;14.02;;;7.97;;
61295;SDS011;47168;48.104;20.730;2022-08-19T02:57:47;13.65;;;8.07;;
61295;SDS011;47168;48.104;20.730;2022-08-19T03:00:13;15.93;;;8.27;;
61295;SDS011;47168;48.104;20.730;2022-08-19T03:02:40;14.77;;;8.10;;
61295;SDS011;47168;48.104;20.730;2022-08-19T03:05:06;14.07;;;8.43;;
61295;SDS011;47168;48.104;20.730;2022-08-19T03:07:34;15.00;;;8.50;;
61295;SDS011;47168;48.104;20.730;2022-08-19T03:10:00;15.20;;;8.75;;
61295;SDS011;47168;48.104;20.730;2022-08-19T03:12:26;15.40;;;8.35;;
61295;SDS011;47168;48.104;20.730;2022-08-19T03:14:51;14.32;;;8.30;;
61295;SDS011;47168;48.104;20.730;2022-08-19T03:17:17;15.43;;;8.35;;
61295;SDS011;47168;48.104;20.730;2022-08-19T03:19:43;16.55;;;8.75;;
61295;SDS011;47168;48.104;20.730;2022-08-19T03:22:09;15.30;;;8.52;;
61295;SDS011;47168;48.104;20.730;2022-08-19T03:24:34;15.20;;;8.23;;
61295;SDS011;47168;48.104;20.730;2022-08-19T03:27:00;14.25;;;8.13;;
61295;SDS011;47168;48.104;20.730;2022-08-19T03:29:26;15.10;;;8.40;;
61295;SDS011;47168;48.104;20.730;2022-08-19T03:31:54;14.85;;;8.35;;
61295;SDS011;47168;48.104;20.730;2022-08-19T03:34:21;15.15;;;8.10;;
61295;SDS011;47168;48.104;20.730;2022-08-19T03:36:51;14.02;;;7.80;;
61295;SDS011;47168;48.104;20.730;2022-08-19T03:39:17;15.70;;;8.55;;
61295;SDS011;47168;48.104;20.730;2022-08-19T03:41:44;15.63;;;8.70;;
61295;SDS011;47168;48.104;20.730;2022-08-19T03:44:15;14.38;;;8.18;;
61295;SDS011;47168;48.104;20.730;2022-08-19T03:46:42;12.52;;;7.68;;
61295;SDS011;47168;48.104;20.730;2022-08-19T03:49:08;14.20;;;7.90;;
61295;SDS011;47168;48.104;20.730;2022-08-19T03:51:35;13.95;;;8.55;;
61295;SDS011;47168;48.104;20.730;2022-08-19T03:54:04;14.15;;;7.90;;
61295;SDS011;47168;48.104;20.730;2022-08-19T03:56:33;14.05;;;7.75;;
61295;SDS011;47168;48.104;20.730;2022-08-19T03:59:00;13.52;;;7.70;;
61295;SDS011;47168;48.104;20.730;2022-08-19T04:01:26;14.60;;;8.55;;
61295;SDS011;47168;48.104;20.730;2022-08-19T04:03:53;15.27;;;9.10;;
61295;SDS011;47168;48.104;20.730;2022-08-19T04:06:24;16.23;;;8.63;;
61295;SDS011;47168;48.104;20.730;2022-08-19T04:08:52;14.07;;;7.97;;
61295;SDS011;47168;48.104;20.730;2022-08-19T04:11:20;14.15;;;8.05;;
61295;SDS011;47168;48.104;20.730;2022-08-19T04:13:52;14.73;;;8.52;;
61295;SDS011;47168;48.104;20.730;2022-08-19T04:16:18;15.55;;;8.07;;
61295;SDS011;47168;48.104;20.730;2022-08-19T04:18:48;17.73;;;8.93;;
61295;SDS011;47168;48.104;20.730;2022-08-19T04:21:18;14.68;;;8.38;;
61295;SDS011;47168;48.104;20.730;2022-08-19T04:23:45;14.38;;;8.45;;
61295;SDS011;47168;48.104;20.730;2022-08-19T04:26:12;15.75;;;8.82;;
61295;SDS011;47168;48.104;20.730;2022-08-19T04:28:42;17.05;;;9.45;;
61295;SDS011;47168;48.104;20.730;2022-08-19T04:31:12;16.85;;;8.77;;
61295;SDS011;47168;48.104;20.730;2022-08-19T04:33:42;15.77;;;8.63;;
61295;SDS011;47168;48.104;20.730;2022-08-19T04:36:08;13.77;;;8.15;;
61295;SDS011;47168;48.104;20.730;2022-08-19T04:41:06;17.50;;;8.90;;
61295;SDS011;47168;48.104;20.730;2022-08-19T04:43:50;14.02;;;8.40;;
61295;SDS011;47168;48.104;20.730;2022-08-19T04:46:16;14.32;;;8.18;;
61295;SDS011;47168;48.104;20.730;2022-08-19T04:48:42;14.13;;;8.23;;
61295;SDS011;47168;48.104;20.730;2022-08-19T04:51:09;14.70;;;8.02;;
61295;SDS011;47168;48.104;20.730;2022-08-19T04:53:38;15.60;;;8.52;;
61295;SDS011;47168;48.104;20.730;2022-08-19T04:56:09;13.25;;;8.27;;
61295;SDS011;47168;48.104;20.730;2022-08-19T04:58:38;14.27;;;8.15;;
61295;SDS011;47168;48.104;20.730;2022-08-19T05:01:07;15.32;;;8.55;;
61295;SDS011;47168;48.104;20.730;2022-08-19T05:03:35;16.23;;;8.60;;
61295;SDS011;47168;48.104;20.730;2022-08-19T05:06:07;16.15;;;8.80;;
61295;SDS011;47168;48.104;20.730;2022-08-19T05:08:35;15.95;;;9.00;;
61295;SDS011;47168;48.104;20.730;2022-08-19T05:13:34;15.07;;;8.68;;
61295;SDS011;47168;48.104;20.730;2022-08-19T05:16:00;14.32;;;8.45;;
61295;SDS011;47168;48.104;20.730;2022-08-19T05:18:25;15.20;;;9.00;;
61295;SDS011;47168;48.104;20.730;2022-08-19T05:21:23;15.50;;;7.95;;
61295;SDS011;47168;48.104;20.730;2022-08-19T05:24:08;15.50;;;8.82;;
61295;SDS011;47168;48.104;20.730;2022-08-19T05:26:35;13.43;;;8.35;;
61295;SDS011;47168;48.104;20.730;2022-08-19T05:29:02;14.15;;;8.50;;
61295;SDS011;47168;48.104;20.730;2022-08-19T05:31:28;15.73;;;8.90;;
61295;SDS011;47168;48.104;20.730;2022-08-19T05:33:54;17.55;;;9.40;;
61295;SDS011;47168;48.104;20.730;2022-08-19T05:36:20;13.85;;;8.52;;
61295;SDS011;47168;48.104;20.730;2022-08-19T05:38:46;15.23;;;8.85;;
61295;SDS011;47168;48.104;20.730;2022-08-19T05:41:13;16.23;;;9.93;;
61295;SDS011;47168;48.104;20.730;2022-08-19T05:43:40;27.92;;;15.82;;
61295;SDS011;47168;48.104;20.730;2022-08-19T05:46:06;21.45;;;13.00;;
61295;SDS011;47168;48.104;20.730;2022-08-19T05:48:32;19.73;;;10.60;;
61295;SDS011;47168;48.104;20.730;2022-08-19T05:51:02;21.83;;;12.38;;
61295;SDS011;47168;48.104;20.730;2022-08-19T05:53:29;21.90;;;9.77;;
61295;SDS011;47168;48.104;20.730;2022-08-19T05:55:54;20.33;;;9.60;;
61295;SDS011;47168;48.104;20.730;2022-08-19T05:58:20;17.38;;;10.10;;
61295;SDS011;47168;48.104;20.730;2022-08-19T06:00:45;17.35;;;9.20;;
61295;SDS011;47168;48.104;20.730;2022-08-19T06:03:11;17.60;;;10.00;;
61295;SDS011;47168;48.104;20.730;2022-08-19T06:05:36;17.10;;;9.68;;
61295;SDS011;47168;48.104;20.730;2022-08-19T06:08:01;18.73;;;9.55;;
61295;SDS011;47168;48.104;20.730;2022-08-19T06:10:27;17.00;;;9.23;;
61295;SDS011;47168;48.104;20.730;2022-08-19T06:12:53;14.45;;;8.80;;
61295;SDS011;47168;48.104;20.730;2022-08-19T06:15:19;15.43;;;9.05;;
61295;SDS011;47168;48.104;20.730;2022-08-19T06:17:46;15.32;;;9.10;;
61295;SDS011;47168;48.104;20.730;2022-08-19T06:20:13;16.75;;;9.52;;
61295;SDS011;47168;48.104;20.730;2022-08-19T06:22:46;16.08;;;8.98;;
61295;SDS011;47168;48.104;20.730;2022-08-19T06:25:16;14.93;;;9.05;;
61295;SDS011;47168;48.104;20.730;2022-08-19T06:27:42;14.02;;;8.98;;
61295;SDS011;47168;48.104;20.730;2022-08-19T06:30:09;14.10;;;9.25;;
61295;SDS011;47168;48.104;20.730;2022-08-19T06:32:36;14.35;;;9.45;;
61295;SDS011;47168;48.104;20.730;2022-08-19T06:35:01;16.67;;;8.88;;
61295;SDS011;47168;48.104;20.730;2022-08-19T06:37:29;14.18;;;9.48;;
61295;SDS011;47168;48.104;20.730;2022-08-19T06:39:55;16.52;;;9.55;;
61295;SDS011;47168;48.104;20.730;2022-08-19T06:42:20;14.60;;;9.55;;
61295;SDS011;47168;48.104;20.730;2022-08-19T06:44:46;15.98;;;8.70;;
61295;SDS011;47168;48.104;20.730;2022-08-19T06:47:15;13.15;;;9.18;;
61295;SDS011;47168;48.104;20.730;2022-08-19T06:49:44;13.82;;;9.27;;
61295;SDS011;47168;48.104;20.730;2022-08-19T06:52:10;14.82;;;8.52;;
61295;SDS011;47168;48.104;20.730;2022-08-19T06:54:40;14.70;;;9.20;;
61295;SDS011;47168;48.104;20.730;2022-08-19T06:57:10;14.30;;;8.77;;
61295;SDS011;47168;48.104;20.730;2022-08-19T06:59:39;14.25;;;8.63;;
61295;SDS011;47168;48.104;20.730;2022-08-19T07:02:05;15.23;;;9.00;;
61295;SDS011;47168;48.104;20.730;2022-08-19T07:04:31;12.98;;;8.55;;
61295;SDS011;47168;48.104;20.730;2022-08-19T07:07:00;14.23;;;9.32;;
61295;SDS011;47168;48.104;20.730;2022-08-19T07:09:31;14.60;;;9.25;;
61295;SDS011;47168;48.104;20.730;2022-08-19T07:11:57;14.77;;;8.80;;
61295;SDS011;47168;48.104;20.730;2022-08-19T07:14:24;15.30;;;9.23;;
61295;SDS011;47168;48.104;20.730;2022-08-19T07:16:52;14.40;;;8.90;;
61295;SDS011;47168;48.104;20.730;2022-08-19T07:19:21;17.52;;;9.45;;
61295;SDS011;47168;48.104;20.730;2022-08-19T07:21:48;13.65;;;9.10;;
61295;SDS011;47168;48.104;20.730;2022-08-19T07:24:17;17.05;;;8.90;;
61295;SDS011;47168;48.104;20.730;2022-08-19T07:26:44;15.30;;;8.88;;
61295;SDS011;47168;48.104;20.730;2022-08-19T07:29:13;14.55;;;8.98;;
61295;SDS011;47168;48.104;20.730;2022-08-19T07:31:39;14.32;;;8.95;;
61295;SDS011;47168;48.104;20.730;2022-08-19T07:34:05;14.20;;;8.55;;
61295;SDS011;47168;48.104;20.730;2022-08-19T07:36:33;13.93;;;8.63;;
61295;SDS011;47168;48.104;20.730;2022-08-19T07:39:04;14.82;;;8.68;;
61295;SDS011;47168;48.104;20.730;2022-08-19T07:44:00;16.85;;;8.88;;
61295;SDS011;47168;48.104;20.730;2022-08-19T07:46:28;14.80;;;8.82;;
61295;SDS011;47168;48.104;20.730;2022-08-19T07:48:58;13.35;;;8.55;;
61295;SDS011;47168;48.104;20.730;2022-08-19T07:51:25;12.48;;;7.80;;
61295;SDS011;47168;48.104;20.730;2022-08-19T07:53:51;12.75;;;8.00;;
61295;SDS011;47168;48.104;20.730;2022-08-19T07:56:18;13.82;;;8.20;;
61295;SDS011;47168;48.104;20.730;2022-08-19T07:58:45;31.23;;;11.40;;
61295;SDS011;47168;48.104;20.730;2022-08-19T08:01:13;15.20;;;9.05;;
61295;SDS011;47168;48.104;20.730;2022-08-19T08:03:41;11.82;;;7.00;;
61295;SDS011;47168;48.104;20.730;2022-08-19T08:06:26;13.65;;;8.18;;
61295;SDS011;47168;48.104;20.730;2022-08-19T08:09:11;13.18;;;8.05;;
61295;SDS011;47168;48.104;20.730;2022-08-19T08:11:41;14.48;;;8.70;;
61295;SDS011;47168;48.104;20.730;2022-08-19T08:14:15;15.02;;;8.48;;
61295;SDS011;47168;48.104;20.730;2022-08-19T08:16:43;12.63;;;7.72;;
61295;SDS011;47168;48.104;20.730;2022-08-19T08:19:10;19.08;;;8.30;;
61295;SDS011;47168;48.104;20.730;2022-08-19T08:21:40;14.18;;;8.50;;
61295;SDS011;47168;48.104;20.730;2022-08-19T08:24:06;13.80;;;8.27;;
61295;SDS011;47168;48.104;20.730;2022-08-19T08:26:35;12.05;;;7.47;;
61295;SDS011;47168;48.104;20.730;2022-08-19T08:29:00;14.15;;;7.15;;
61295;SDS011;47168;48.104;20.730;2022-08-19T08:31:26;11.32;;;7.18;;
61295;SDS011;47168;48.104;20.730;2022-08-19T08:33:52;14.25;;;7.80;;
61295;SDS011;47168;48.104;20.730;2022-08-19T08:36:17;15.25;;;8.40;;
61295;SDS011;47168;48.104;20.730;2022-08-19T08:38:43;12.80;;;8.00;;
61295;SDS011;47168;48.104;20.730;2022-08-19T08:43:45;11.45;;;7.22;;
61295;SDS011;47168;48.104;20.730;2022-08-19T08:46:35;11.45;;;7.10;;
61295;SDS011;47168;48.104;20.730;2022-08-19T08:51:59;13.43;;;7.55;;
61295;SDS011;47168;48.104;20.730;2022-08-19T08:54:30;11.82;;;6.75;;
61295;SDS011;47168;48.104;20.730;2022-08-19T08:57:02;11.70;;;6.90;;
61295;SDS011;47168;48.104;20.730;2022-08-19T08:59:30;11.65;;;7.03;;
61295;SDS011;47168;48.104;20.730;2022-08-19T09:01:59;12.13;;;7.20;;
61295;SDS011;47168;48.104;20.730;2022-08-19T09:04:25;11.05;;;6.93;;
61295;SDS011;47168;48.104;20.730;2022-08-19T09:09:37;10.20;;;6.45;;
61295;SDS011;47168;48.104;20.730;2022-08-19T09:12:19;11.15;;;6.47;;
61295;SDS011;47168;48.104;20.730;2022-08-19T09:15:14;12.32;;;6.97;;
61295;SDS011;47168;48.104;20.730;2022-08-19T09:17:43;11.30;;;6.72;;
61295;SDS011;47168;48.104;20.730;2022-08-19T09:22:38;10.60;;;5.75;;
61295;SDS011;47168;48.104;20.730;2022-08-19T09:25:06;10.15;;;6.10;;
61295;SDS011;47168;48.104;20.730;2022-08-19T09:27:35;10.88;;;6.30;;
61295;SDS011;47168;48.104;20.730;2022-08-19T09:30:03;13.07;;;6.25;;
61295;SDS011;47168;48.104;20.730;2022-08-19T09:32:30;12.55;;;5.95;;
61295;SDS011;47168;48.104;20.730;2022-08-19T09:34:56;10.93;;;6.00;;
61295;SDS011;47168;48.104;20.730;2022-08-19T09:37:23;10.50;;;6.45;;
61295;SDS011;47168;48.104;20.730;2022-08-19T09:39:49;10.13;;;6.22;;
61295;SDS011;47168;48.104;20.730;2022-08-19T09:42:15;11.10;;;6.32;;
61295;SDS011;47168;48.104;20.730;2022-08-19T09:44:41;9.68;;;5.45;;
61295;SDS011;47168;48.104;20.730;2022-08-19T09:47:08;9.95;;;5.80;;
61295;SDS011;47168;48.104;20.730;2022-08-19T09:49:34;9.80;;;5.80;;
61295;SDS011;47168;48.104;20.730;2022-08-19T09:52:00;11.05;;;5.68;;
61295;SDS011;47168;48.104;20.730;2022-08-19T09:54:26;11.15;;;5.60;;
61295;SDS011;47168;48.104;20.730;2022-08-19T09:56:55;9.23;;;5.63;;
61295;SDS011;47168;48.104;20.730;2022-08-19T09:59:22;11.98;;;5.95;;
61295;SDS011;47168;48.104;20.730;2022-08-19T10:01:48;11.05;;;5.63;;
61295;SDS011;47168;48.104;20.730;2022-08-19T10:04:13;10.35;;;6.18;;
61295;SDS011;47168;48.104;20.730;2022-08-19T10:06:39;9.35;;;5.40;;
61295;SDS011;47168;48.104;20.730;2022-08-19T10:09:05;10.30;;;5.97;;
61295;SDS011;47168;48.104;20.730;2022-08-19T10:11:33;10.52;;;5.93;;
61295;SDS011;47168;48.104;20.730;2022-08-19T10:14:00;12.20;;;6.03;;
61295;SDS011;47168;48.104;20.730;2022-08-19T10:16:26;9.38;;;5.38;;
61295;SDS011;47168;48.104;20.730;2022-08-19T10:18:51;9.55;;;5.95;;
61295;SDS011;47168;48.104;20.730;2022-08-19T10:21:19;9.02;;;5.65;;
61295;SDS011;47168;48.104;20.730;2022-08-19T10:23:50;10.25;;;6.10;;
61295;SDS011;47168;48.104;20.730;2022-08-19T10:26:20;9.30;;;5.53;;
61295;SDS011;47168;48.104;20.730;2022-08-19T10:28:47;8.73;;;5.00;;
61295;SDS011;47168;48.104;20.730;2022-08-19T10:31:17;9.80;;;5.25;;
61295;SDS011;47168;48.104;20.730;2022-08-19T10:33:45;9.87;;;5.60;;
61295;SDS011;47168;48.104;20.730;2022-08-19T10:36:14;8.73;;;5.25;;
61295;SDS011;47168;48.104;20.730;2022-08-19T10:38:47;10.30;;;5.80;;
61295;SDS011;47168;48.104;20.730;2022-08-19T10:41:20;9.97;;;5.77;;
61295;SDS011;47168;48.104;20.730;2022-08-19T10:46:17;8.73;;;5.07;;
61295;SDS011;47168;48.104;20.730;2022-08-19T10:48:43;10.50;;;5.45;;
61295;SDS011;47168;48.104;20.730;2022-08-19T10:51:09;10.30;;;6.47;;
61295;SDS011;47168;48.104;20.730;2022-08-19T10:53:54;9.20;;;5.18;;
61295;SDS011;47168;48.104;20.730;2022-08-19T10:56:20;9.48;;;5.45;;
61295;SDS011;47168;48.104;20.730;2022-08-19T10:59:05;8.95;;;5.55;;
61295;SDS011;47168;48.104;20.730;2022-08-19T11:01:31;9.40;;;5.25;;
61295;SDS011;47168;48.104;20.730;2022-08-19T11:04:00;11.05;;;5.30;;
61295;SDS011;47168;48.104;20.730;2022-08-19T11:06:26;9.13;;;5.55;;
61295;SDS011;47168;48.104;20.730;2022-08-19T11:08:55;10.00;;;5.40;;
61295;SDS011;47168;48.104;20.730;2022-08-19T11:11:21;9.02;;;5.47;;
61295;SDS011;47168;48.104;20.730;2022-08-19T11:13:47;9.40;;;5.25;;
61295;SDS011;47168;48.104;20.730;2022-08-19T11:16:19;9.60;;;5.53;;
61295;SDS011;47168;48.104;20.730;2022-08-19T11:21:19;8.55;;;5.35;;
61295;SDS011;47168;48.104;20.730;2022-08-19T11:23:48;10.23;;;5.70;;
61295;SDS011;47168;48.104;20.730;2022-08-19T11:26:16;9.05;;;5.00;;
61295;SDS011;47168;48.104;20.730;2022-08-19T11:28:42;9.25;;;5.28;;
61295;SDS011;47168;48.104;20.730;2022-08-19T11:31:11;8.75;;;5.60;;
61295;SDS011;47168;48.104;20.730;2022-08-19T11:33:42;9.65;;;5.53;;
61295;SDS011;47168;48.104;20.730;2022-08-19T11:36:08;9.65;;;5.78;;
61295;SDS011;47168;48.104;20.730;2022-08-19T11:38:34;9.23;;;6.03;;
61295;SDS011;47168;48.104;20.730;2022-08-19T11:41:01;8.45;;;5.18;;
61295;SDS011;47168;48.104;20.730;2022-08-19T11:43:29;9.38;;;5.85;;
61295;SDS011;47168;48.104;20.730;2022-08-19T11:45:55;8.85;;;5.13;;
61295;SDS011;47168;48.104;20.730;2022-08-19T11:48:22;8.40;;;5.15;;
61295;SDS011;47168;48.104;20.730;2022-08-19T11:50:52;8.70;;;5.07;;
61295;SDS011;47168;48.104;20.730;2022-08-19T11:53:21;9.65;;;5.05;;
61295;SDS011;47168;48.104;20.730;2022-08-19T11:55:47;10.15;;;5.18;;
61295;SDS011;47168;48.104;20.730;2022-08-19T11:58:13;8.77;;;5.45;;
61295;SDS011;47168;48.104;20.730;2022-08-19T12:00:41;9.63;;;5.47;;
61295;SDS011;47168;48.104;20.730;2022-08-19T12:03:10;9.52;;;5.30;;
61295;SDS011;47168;48.104;20.730;2022-08-19T12:05:36;9.07;;;5.32;;
61295;SDS011;47168;48.104;20.730;2022-08-19T12:08:03;10.35;;;5.20;;
61295;SDS011;47168;48.104;20.730;2022-08-19T12:10:28;9.07;;;5.05;;
61295;SDS011;47168;48.104;20.730;2022-08-19T12:12:54;9.55;;;5.78;;
61295;SDS011;47168;48.104;20.730;2022-08-19T12:15:19;11.65;;;5.57;;
61295;SDS011;47168;48.104;20.730;2022-08-19T12:17:45;9.65;;;6.15;;
61295;SDS011;47168;48.104;20.730;2022-08-19T12:20:10;9.85;;;6.43;;
61295;SDS011;47168;48.104;20.730;2022-08-19T12:22:38;8.73;;;5.43;;
61295;SDS011;47168;48.104;20.730;2022-08-19T12:25:06;10.45;;;5.85;;
61295;SDS011;47168;48.104;20.730;2022-08-19T12:27:32;8.70;;;5.32;;
61295;SDS011;47168;48.104;20.730;2022-08-19T12:29:58;9.45;;;6.07;;
61295;SDS011;47168;48.104;20.730;2022-08-19T12:32:26;9.30;;;5.93;;
61295;SDS011;47168;48.104;20.730;2022-08-19T12:34:52;9.52;;;5.75;;
61295;SDS011;47168;48.104;20.730;2022-08-19T12:37:18;9.35;;;5.82;;
61295;SDS011;47168;48.104;20.730;2022-08-19T12:39:43;10.15;;;5.80;;
61295;SDS011;47168;48.104;20.730;2022-08-19T12:42:12;10.27;;;5.60;;
61295;SDS011;47168;48.104;20.730;2022-08-19T12:44:39;9.55;;;5.75;;
61295;SDS011;47168;48.104;20.730;2022-08-19T12:47:07;12.20;;;6.00;;
61295;SDS011;47168;48.104;20.730;2022-08-19T12:49:33;9.82;;;5.40;;
61295;SDS011;47168;48.104;20.730;2022-08-19T12:52:01;9.43;;;5.65;;
61295;SDS011;47168;48.104;20.730;2022-08-19T12:54:30;9.68;;;6.07;;
61295;SDS011;47168;48.104;20.730;2022-08-19T12:56:57;9.38;;;5.93;;
61295;SDS011;47168;48.104;20.730;2022-08-19T12:59:23;10.07;;;6.40;;
61295;SDS011;47168;48.104;20.730;2022-08-19T13:01:48;9.35;;;6.20;;
61295;SDS011;47168;48.104;20.730;2022-08-19T13:04:14;11.05;;;6.03;;
61295;SDS011;47168;48.104;20.730;2022-08-19T13:06:40;9.13;;;5.90;;
61295;SDS011;47168;48.104;20.730;2022-08-19T13:09:07;9.15;;;5.53;;
61295;SDS011;47168;48.104;20.730;2022-08-19T13:11:33;8.75;;;5.50;;
61295;SDS011;47168;48.104;20.730;2022-08-19T13:13:59;9.95;;;6.18;;
61295;SDS011;47168;48.104;20.730;2022-08-19T13:16:26;10.70;;;5.55;;
61295;SDS011;47168;48.104;20.730;2022-08-19T13:18:53;9.07;;;5.50;;
61295;SDS011;47168;48.104;20.730;2022-08-19T13:21:21;9.00;;;5.78;;
61295;SDS011;47168;48.104;20.730;2022-08-19T13:23:49;9.63;;;5.97;;
61295;SDS011;47168;48.104;20.730;2022-08-19T13:26:16;10.40;;;5.93;;
61295;SDS011;47168;48.104;20.730;2022-08-19T13:28:41;10.68;;;6.47;;
61295;SDS011;47168;48.104;20.730;2022-08-19T13:31:27;9.25;;;5.82;;
61295;SDS011;47168;48.104;20.730;2022-08-19T13:34:13;10.07;;;6.38;;
61295;SDS011;47168;48.104;20.730;2022-08-19T13:36:40;10.20;;;6.60;;
61295;SDS011;47168;48.104;20.730;2022-08-19T13:39:06;10.02;;;6.90;;
61295;SDS011;47168;48.104;20.730;2022-08-19T13:41:33;9.65;;;6.25;;
61295;SDS011;47168;48.104;20.730;2022-08-19T13:43:59;9.80;;;6.30;;
61295;SDS011;47168;48.104;20.730;2022-08-19T13:46:24;11.07;;;7.03;;
61295;SDS011;47168;48.104;20.730;2022-08-19T13:48:50;9.80;;;5.80;;
61295;SDS011;47168;48.104;20.730;2022-08-19T13:51:16;9.45;;;6.20;;
61295;SDS011;47168;48.104;20.730;2022-08-19T13:53:42;10.75;;;6.45;;
61295;SDS011;47168;48.104;20.730;2022-08-19T13:56:10;11.85;;;6.70;;
61295;SDS011;47168;48.104;20.730;2022-08-19T13:58:38;11.38;;;6.88;;
61295;SDS011;47168;48.104;20.730;2022-08-19T14:01:03;9.77;;;6.28;;
61295;SDS011;47168;48.104;20.730;2022-08-19T14:03:30;10.15;;;6.20;;
61295;SDS011;47168;48.104;20.730;2022-08-19T14:05:56;10.07;;;6.68;;
61295;SDS011;47168;48.104;20.730;2022-08-19T14:08:22;11.15;;;7.00;;
61295;SDS011;47168;48.104;20.730;2022-08-19T14:10:48;11.18;;;6.97;;
61295;SDS011;47168;48.104;20.730;2022-08-19T14:13:15;10.82;;;6.57;;
61295;SDS011;47168;48.104;20.730;2022-08-19T14:15:43;11.73;;;6.50;;
61295;SDS011;47168;48.104;20.730;2022-08-19T14:18:08;10.73;;;6.38;;
61295;SDS011;47168;48.104;20.730;2022-08-19T14:20:34;11.15;;;6.90;;
61295;SDS011;47168;48.104;20.730;2022-08-19T14:23:01;11.07;;;6.60;;
61295;SDS011;47168;48.104;20.730;2022-08-19T14:25:28;10.15;;;6.25;;
61295;SDS011;47168;48.104;20.730;2022-08-19T14:27:56;9.57;;;5.93;;
61295;SDS011;47168;48.104;20.730;2022-08-19T14:30:23;9.82;;;6.68;;
61295;SDS011;47168;48.104;20.730;2022-08-19T14:32:53;9.32;;;6.45;;
61295;SDS011;47168;48.104;20.730;2022-08-19T14:35:23;10.57;;;6.88;;
61295;SDS011;47168;48.104;20.730;2022-08-19T14:37:51;12.07;;;6.15;;
61295;SDS011;47168;48.104;20.730;2022-08-19T14:40:22;12.02;;;6.18;;
61295;SDS011;47168;48.104;20.730;2022-08-19T14:42:56;10.00;;;6.60;;
61295;SDS011;47168;48.104;20.730;2022-08-19T14:45:29;9.95;;;6.18;;
61295;SDS011;47168;48.104;20.730;2022-08-19T14:47:56;9.95;;;6.65;;
61295;SDS011;47168;48.104;20.730;2022-08-19T14:50:25;9.27;;;6.13;;